sensor_id;sensor_type;location;lat;lon;timestamp;pressure;altitude;pressure_sealevel;temperature;humidity
53316;BME280;39204;53.896;11.432;2023-04-22T05:16:39;101138.72;;;10.82;100.00
53316;BME280;39204;53.896;11.432;2023-04-22T05:18:09;101137.34;;;11.08;100.00
53316;BME280;39204;53.896;11.432;2023-04-22T05:19:39;101143.69;;;11.02;100.00
53316;BME280;39204;53.896;11.432;2023-04-22T05:21:10;101142.53;;;11.26;100.00
53316;BME280;39204;53.896;11.432;2023-04-22T05:22:40;101136.53;;;11.36;100.00
53316;BME280;39204;53.896;11.432;2023-04-22T05:24:12;101144.38;;;11.54;100.00
53316;BME280;39204;53.896;11.432;2023-04-22T05:25:42;101146.88;;;11.15;100.00
53316;BME280;39204;53.896;11.432;2023-04-22T05:27:12;101151.53;;;11.49;100.00
53316;BME280;39204;53.896;11.432;2023-04-22T05:28:43;101145.88;;;11.79;100.00
53316;BME280;39204;53.896;11.432;2023-04-22T05:30:13;101143.88;;;11.86;98.78
53316;BME280;39204;53.896;11.432;2023-04-22T05:31:43;101141.34;;;11.79;99.45
53316;BME280;39204;53.896;11.432;2023-04-22T05:33:13;101135.06;;;12.24;98.50
53316;BME280;39204;53.896;11.432;2023-04-22T05:34:44;101136.56;;;12.54;96.31
53316;BME280;39204;53.896;11.432;2023-04-22T05:36:14;101134.44;;;12.00;96.61
53316;BME280;39204;53.896;11.432;2023-04-22T05:37:44;101128.47;;;12.15;97.10
53316;BME280;39204;53.896;11.432;2023-04-22T05:39:15;101138.31;;;12.65;96.15
53316;BME280;39204;53.896;11.432;2023-04-22T05:40:45;101131.56;;;12.84;94.66
53316;BME280;39204;53.896;11.432;2023-04-22T05:42:15;101137.09;;;12.56;95.80
53316;BME280;39204;53.896;11.432;2023-04-22T05:43:46;101140.38;;;12.58;96.07
53316;BME280;39204;53.896;11.432;2023-04-22T05:45:16;101149.91;;;12.49;96.08
53316;BME280;39204;53.896;11.432;2023-04-22T05:46:46;101139.94;;;12.88;94.57
53316;BME280;39204;53.896;11.432;2023-04-22T05:48:17;101138.22;;;12.60;93.45
53316;BME280;39204;53.896;11.432;2023-04-22T05:49:47;101129.44;;;12.65;93.63
53316;BME280;39204;53.896;11.432;2023-04-22T05:51:17;101146.63;;;13.07;93.85
53316;BME280;39204;53.896;11.432;2023-04-22T05:52:48;101137.09;;;13.22;92.91
53316;BME280;39204;53.896;11.432;2023-04-22T05:54:18;101132.88;;;13.31;90.20
53316;BME280;39204;53.896;11.432;2023-04-22T05:55:49;101139.16;;;13.15;91.82
53316;BME280;39204;53.896;11.432;2023-04-22T05:57:19;101131.94;;;13.42;92.73
53316;BME280;39204;53.896;11.432;2023-04-22T05:58:49;101137.47;;;13.90;91.24
53316;BME280;39204;53.896;11.432;2023-04-22T06:00:20;101129.34;;;13.85;89.77
53316;BME280;39204;53.896;11.432;2023-04-22T06:01:50;101138.53;;;13.07;90.57
53316;BME280;39204;53.896;11.432;2023-04-22T06:03:20;101128.41;;;13.42;91.24
53316;BME280;39204;53.896;11.432;2023-04-22T06:04:51;101131.16;;;13.79;88.56
53316;BME280;39204;53.896;11.432;2023-04-22T06:06:21;101132.41;;;13.61;88.23
53316;BME280;39204;53.896;11.432;2023-04-22T06:07:51;101131.81;;;13.91;88.64
53316;BME280;39204;53.896;11.432;2023-04-22T06:09:22;101137.00;;;14.40;88.27
53316;BME280;39204;53.896;11.432;2023-04-22T06:10:52;101141.63;;;15.03;84.45
53316;BME280;39204;53.896;11.432;2023-04-22T06:12:22;101136.91;;;14.67;85.07
53316;BME280;39204;53.896;11.432;2023-04-22T06:13:52;101138.03;;;14.34;84.57
53316;BME280;39204;53.896;11.432;2023-04-22T06:15:24;101134.19;;;14.67;85.17
53316;BME280;39204;53.896;11.432;2023-04-22T06:16:55;101125.63;;;14.33;84.81
53316;BME280;39204;53.896;11.432;2023-04-22T06:18:25;101127.44;;;14.17;85.89
53316;BME280;39204;53.896;11.432;2023-04-22T06:19:56;101130.50;;;14.36;86.79
53316;BME280;39204;53.896;11.432;2023-04-22T06:21:26;101121.91;;;14.39;86.29
53316;BME280;39204;53.896;11.432;2023-04-22T06:22:57;101118.94;;;14.41;87.58
53316;BME280;39204;53.896;11.432;2023-04-22T06:24:28;101122.97;;;14.91;84.97
53316;BME280;39204;53.896;11.432;2023-04-22T06:25:58;101119.13;;;14.82;85.98
53316;BME280;39204;53.896;11.432;2023-04-22T06:27:30;101122.81;;;14.55;84.59
53316;BME280;39204;53.896;11.432;2023-04-22T06:29:01;101115.50;;;14.50;83.34
53316;BME280;39204;53.896;11.432;2023-04-22T06:30:34;101118.03;;;14.72;84.30
53316;BME280;39204;53.896;11.432;2023-04-22T06:32:04;101118.06;;;14.77;84.33
53316;BME280;39204;53.896;11.432;2023-04-22T06:33:34;101115.13;;;14.84;84.32
53316;BME280;39204;53.896;11.432;2023-04-22T06:35:05;101120.78;;;14.88;84.37
53316;BME280;39204;53.896;11.432;2023-04-22T06:36:36;101115.19;;;15.10;82.61
53316;BME280;39204;53.896;11.432;2023-04-22T06:38:06;101115.31;;;14.67;84.71
53316;BME280;39204;53.896;11.432;2023-04-22T06:39:36;101111.88;;;14.87;83.93
53316;BME280;39204;53.896;11.432;2023-04-22T06:41:07;101108.19;;;15.24;81.82
53316;BME280;39204;53.896;11.432;2023-04-22T06:42:37;101108.72;;;15.21;81.31
53316;BME280;39204;53.896;11.432;2023-04-22T06:44:07;101109.41;;;14.75;82.25
53316;BME280;39204;53.896;11.432;2023-04-22T06:45:38;101110.88;;;15.14;81.63
53316;BME280;39204;53.896;11.432;2023-04-22T06:47:08;101110.00;;;14.93;82.18
53316;BME280;39204;53.896;11.432;2023-04-22T06:48:38;101110.63;;;15.31;82.81
53316;BME280;39204;53.896;11.432;2023-04-22T06:50:09;101098.44;;;15.03;81.38
53316;BME280;39204;53.896;11.432;2023-04-22T06:51:39;101101.72;;;15.25;82.04
53316;BME280;39204;53.896;11.432;2023-04-22T06:53:10;101101.09;;;14.87;81.08
53316;BME280;39204;53.896;11.432;2023-04-22T06:54:40;101093.75;;;14.83;83.56
53316;BME280;39204;53.896;11.432;2023-04-22T06:56:10;101095.50;;;15.24;82.54
53316;BME280;39204;53.896;11.432;2023-04-22T06:57:40;101090.09;;;15.35;81.91
53316;BME280;39204;53.896;11.432;2023-04-22T06:59:11;101089.88;;;15.82;81.62
53316;BME280;39204;53.896;11.432;2023-04-22T07:00:41;101088.50;;;15.44;81.67
53316;BME280;39204;53.896;11.432;2023-04-22T07:02:11;101085.78;;;15.34;80.62
53316;BME280;39204;53.896;11.432;2023-04-22T07:03:42;101071.44;;;15.23;79.85
53316;BME280;39204;53.896;11.432;2023-04-22T07:05:12;101081.75;;;15.52;80.49
53316;BME280;39204;53.896;11.432;2023-04-22T07:06:43;101071.22;;;15.70;81.75
53316;BME280;39204;53.896;11.432;2023-04-22T07:08:13;101074.44;;;15.62;78.72
53316;BME280;39204;53.896;11.432;2023-04-22T07:09:43;101068.53;;;15.70;79.33
53316;BME280;39204;53.896;11.432;2023-04-22T07:11:14;101061.75;;;15.88;79.24
53316;BME280;39204;53.896;11.432;2023-04-22T07:12:45;101055.16;;;16.20;79.73
53316;BME280;39204;53.896;11.432;2023-04-22T07:14:15;101061.13;;;16.22;78.64
53316;BME280;39204;53.896;11.432;2023-04-22T07:15:45;101070.59;;;16.19;78.91
53316;BME280;39204;53.896;11.432;2023-04-22T07:17:16;101066.34;;;15.88;77.27
53316;BME280;39204;53.896;11.432;2023-04-22T07:18:50;101061.72;;;16.04;78.06
53316;BME280;39204;53.896;11.432;2023-04-22T07:20:21;101062.28;;;15.95;78.84
53316;BME280;39204;53.896;11.432;2023-04-22T07:21:51;101072.25;;;15.64;78.80
53316;BME280;39204;53.896;11.432;2023-04-22T07:23:21;101064.91;;;16.26;77.99
53316;BME280;39204;53.896;11.432;2023-04-22T07:24:52;101057.38;;;15.97;76.75
53316;BME280;39204;53.896;11.432;2023-04-22T07:26:22;101061.91;;;16.28;78.21
53316;BME280;39204;53.896;11.432;2023-04-22T07:27:52;101060.84;;;16.29;76.84
53316;BME280;39204;53.896;11.432;2023-04-22T07:29:22;101047.97;;;16.65;74.74
53316;BME280;39204;53.896;11.432;2023-04-22T07:30:53;101055.75;;;16.72;75.77
53316;BME280;39204;53.896;11.432;2023-04-22T07:32:23;101048.28;;;16.58;75.33
53316;BME280;39204;53.896;11.432;2023-04-22T07:33:53;101058.03;;;16.54;75.21
53316;BME280;39204;53.896;11.432;2023-04-22T07:35:24;101054.03;;;16.96;74.46
53316;BME280;39204;53.896;11.432;2023-04-22T07:36:54;101052.84;;;17.12;74.12
53316;BME280;39204;53.896;11.432;2023-04-22T07:38:25;101057.22;;;17.42;71.64
53316;BME280;39204;53.896;11.432;2023-04-22T07:39:55;101057.31;;;16.93;72.57
53316;BME280;39204;53.896;11.432;2023-04-22T07:41:25;101050.00;;;16.93;74.56
53316;BME280;39204;53.896;11.432;2023-04-22T07:42:55;101048.53;;;17.46;72.47
53316;BME280;39204;53.896;11.432;2023-04-22T07:44:26;101056.09;;;17.49;73.68
53316;BME280;39204;53.896;11.432;2023-04-22T07:45:56;101062.28;;;17.88;72.40
53316;BME280;39204;53.896;11.432;2023-04-22T07:47:26;101058.53;;;18.08;71.77
53316;BME280;39204;53.896;11.432;2023-04-22T07:48:56;101060.50;;;17.74;68.88
53316;BME280;39204;53.896;11.432;2023-04-22T07:50:27;101048.75;;;17.83;71.15
53316;BME280;39204;53.896;11.432;2023-04-22T07:51:57;101055.34;;;17.77;70.16
53316;BME280;39204;53.896;11.432;2023-04-22T07:53:27;101059.16;;;18.00;71.29
53316;BME280;39204;53.896;11.432;2023-04-22T07:54:57;101061.81;;;18.53;71.18
53316;BME280;39204;53.896;11.432;2023-04-22T07:56:28;101059.03;;;18.58;69.56
53316;BME280;39204;53.896;11.432;2023-04-22T07:57:58;101049.47;;;18.42;69.57
53316;BME280;39204;53.896;11.432;2023-04-22T07:59:35;101053.44;;;18.93;69.49
53316;BME280;39204;53.896;11.432;2023-04-22T08:01:06;101045.16;;;19.03;69.16
53316;BME280;39204;53.896;11.432;2023-04-22T08:02:36;101052.78;;;19.01;69.51
53316;BME280;39204;53.896;11.432;2023-04-22T08:04:06;101041.94;;;18.58;68.71
53316;BME280;39204;53.896;11.432;2023-04-22T08:05:36;101045.38;;;18.63;68.33
53316;BME280;39204;53.896;11.432;2023-04-22T08:07:07;101037.81;;;18.84;68.50
53316;BME280;39204;53.896;11.432;2023-04-22T08:08:37;101047.91;;;19.17;70.66
53316;BME280;39204;53.896;11.432;2023-04-22T08:10:08;101039.47;;;19.18;68.23
53316;BME280;39204;53.896;11.432;2023-04-22T08:11:38;101041.38;;;18.80;68.96
53316;BME280;39204;53.896;11.432;2023-04-22T08:13:08;101034.28;;;19.03;70.33
53316;BME280;39204;53.896;11.432;2023-04-22T08:14:39;101037.72;;;18.90;69.50
53316;BME280;39204;53.896;11.432;2023-04-22T08:16:09;101036.63;;;19.42;68.20
53316;BME280;39204;53.896;11.432;2023-04-22T08:17:39;101033.22;;;18.80;68.20
53316;BME280;39204;53.896;11.432;2023-04-22T08:19:10;101029.66;;;19.03;69.64
53316;BME280;39204;53.896;11.432;2023-04-22T08:20:40;101030.47;;;18.85;66.85
53316;BME280;39204;53.896;11.432;2023-04-22T08:22:10;101035.81;;;18.71;67.65
53316;BME280;39204;53.896;11.432;2023-04-22T08:23:42;101041.41;;;18.56;66.99
53316;BME280;39204;53.896;11.432;2023-04-22T08:25:12;101032.16;;;18.57;68.21
53316;BME280;39204;53.896;11.432;2023-04-22T08:26:43;101032.03;;;18.67;69.94
53316;BME280;39204;53.896;11.432;2023-04-22T08:28:13;101029.41;;;18.62;69.20
53316;BME280;39204;53.896;11.432;2023-04-22T08:29:44;101024.22;;;18.84;71.50
53316;BME280;39204;53.896;11.432;2023-04-22T08:31:14;101025.31;;;19.02;69.12
53316;BME280;39204;53.896;11.432;2023-04-22T08:32:45;101032.25;;;19.27;69.63
53316;BME280;39204;53.896;11.432;2023-04-22T08:34:15;101030.75;;;19.35;68.66
53316;BME280;39204;53.896;11.432;2023-04-22T08:35:46;101021.97;;;19.24;67.92
53316;BME280;39204;53.896;11.432;2023-04-22T08:37:16;101009.63;;;19.32;69.02
53316;BME280;39204;53.896;11.432;2023-04-22T08:38:48;101018.00;;;19.17;68.35
53316;BME280;39204;53.896;11.432;2023-04-22T08:40:18;101022.63;;;19.16;68.35
53316;BME280;39204;53.896;11.432;2023-04-22T08:41:49;101017.31;;;18.92;68.01
53316;BME280;39204;53.896;11.432;2023-04-22T08:43:21;101006.28;;;18.83;68.51
53316;BME280;39204;53.896;11.432;2023-04-22T08:44:55;101006.78;;;19.04;69.46
53316;BME280;39204;53.896;11.432;2023-04-22T08:46:26;101009.88;;;18.98;67.57
53316;BME280;39204;53.896;11.432;2023-04-22T08:47:58;100997.53;;;19.05;66.86
53316;BME280;39204;53.896;11.432;2023-04-22T08:49:29;101008.78;;;18.80;67.79
53316;BME280;39204;53.896;11.432;2023-04-22T08:51:00;101002.34;;;19.27;69.51
53316;BME280;39204;53.896;11.432;2023-04-22T08:52:30;101001.97;;;19.34;67.71
53316;BME280;39204;53.896;11.432;2023-04-22T08:54:00;101004.78;;;19.43;68.10
53316;BME280;39204;53.896;11.432;2023-04-22T08:55:31;101001.63;;;19.54;67.42
53316;BME280;39204;53.896;11.432;2023-04-22T08:57:03;101005.94;;;19.55;69.82
53316;BME280;39204;53.896;11.432;2023-04-22T08:58:34;100999.13;;;19.72;69.08
53316;BME280;39204;53.896;11.432;2023-04-22T09:00:06;100994.59;;;19.67;66.17
53316;BME280;39204;53.896;11.432;2023-04-22T09:01:39;101000.78;;;19.54;66.62
53316;BME280;39204;53.896;11.432;2023-04-22T09:03:10;101002.28;;;19.46;65.91
53316;BME280;39204;53.896;11.432;2023-04-22T09:04:41;100998.34;;;19.39;64.99
53316;BME280;39204;53.896;11.432;2023-04-22T09:06:12;100979.41;;;19.66;66.21
53316;BME280;39204;53.896;11.432;2023-04-22T09:07:43;100977.91;;;19.88;65.92
53316;BME280;39204;53.896;11.432;2023-04-22T09:09:14;100982.13;;;19.66;65.57
53316;BME280;39204;53.896;11.432;2023-04-22T09:10:45;100981.53;;;19.97;65.35
53316;BME280;39204;53.896;11.432;2023-04-22T09:12:16;100980.81;;;20.05;65.41
53316;BME280;39204;53.896;11.432;2023-04-22T09:13:48;100973.34;;;19.83;65.71
53316;BME280;39204;53.896;11.432;2023-04-22T09:15:19;100968.63;;;19.75;64.77
53316;BME280;39204;53.896;11.432;2023-04-22T09:16:49;100976.47;;;19.90;65.40
53316;BME280;39204;53.896;11.432;2023-04-22T09:18:20;100974.06;;;20.02;62.57
53316;BME280;39204;53.896;11.432;2023-04-22T09:20:00;100974.56;;;19.91;62.97
53316;BME280;39204;53.896;11.432;2023-04-22T09:21:32;100971.63;;;20.01;64.17
53316;BME280;39204;53.896;11.432;2023-04-22T09:23:03;100968.09;;;19.87;63.07
53316;BME280;39204;53.896;11.432;2023-04-22T09:24:36;100972.25;;;20.12;64.49
53316;BME280;39204;53.896;11.432;2023-04-22T09:26:06;100971.44;;;20.11;64.26
53316;BME280;39204;53.896;11.432;2023-04-22T09:27:37;100972.56;;;20.10;63.33
53316;BME280;39204;53.896;11.432;2023-04-22T09:29:12;100958.81;;;20.15;65.42
53316;BME280;39204;53.896;11.432;2023-04-22T09:30:44;100954.16;;;20.29;65.15
53316;BME280;39204;53.896;11.432;2023-04-22T09:32:16;100955.16;;;20.47;65.26
53316;BME280;39204;53.896;11.432;2023-04-22T09:33:52;100963.44;;;20.78;63.26
53316;BME280;39204;53.896;11.432;2023-04-22T09:35:28;100955.59;;;20.77;63.54
53316;BME280;39204;53.896;11.432;2023-04-22T09:36:59;100943.50;;;20.69;62.14
53316;BME280;39204;53.896;11.432;2023-04-22T09:38:30;100948.41;;;20.81;63.01
53316;BME280;39204;53.896;11.432;2023-04-22T09:40:01;100943.22;;;20.79;62.57
53316;BME280;39204;53.896;11.432;2023-04-22T09:41:33;100949.56;;;20.89;62.58
53316;BME280;39204;53.896;11.432;2023-04-22T09:43:06;100945.44;;;20.91;61.58
53316;BME280;39204;53.896;11.432;2023-04-22T09:44:37;100939.50;;;21.20;60.89
53316;BME280;39204;53.896;11.432;2023-04-22T09:46:08;100937.06;;;21.10;59.90
53316;BME280;39204;53.896;11.432;2023-04-22T09:47:39;100940.44;;;21.16;58.45
53316;BME280;39204;53.896;11.432;2023-04-22T09:49:10;100935.69;;;20.99;57.40
53316;BME280;39204;53.896;11.432;2023-04-22T09:50:43;100937.97;;;21.06;58.66
53316;BME280;39204;53.896;11.432;2023-04-22T09:52:21;100926.63;;;21.12;59.40
53316;BME280;39204;53.896;11.432;2023-04-22T09:54:00;100937.72;;;21.16;59.81
53316;BME280;39204;53.896;11.432;2023-04-22T09:55:36;100935.31;;;21.37;58.57
53316;BME280;39204;53.896;11.432;2023-04-22T09:57:07;100938.25;;;20.95;57.13
53316;BME280;39204;53.896;11.432;2023-04-22T09:58:42;100939.06;;;21.27;55.62
53316;BME280;39204;53.896;11.432;2023-04-22T10:00:13;100936.63;;;21.48;56.49
53316;BME280;39204;53.896;11.432;2023-04-22T10:01:44;100935.31;;;21.45;54.25
53316;BME280;39204;53.896;11.432;2023-04-22T10:03:14;100937.03;;;21.33;53.31
53316;BME280;39204;53.896;11.432;2023-04-22T10:04:46;100931.50;;;21.24;53.90
53316;BME280;39204;53.896;11.432;2023-04-22T10:06:17;100930.16;;;21.13;53.85
53316;BME280;39204;53.896;11.432;2023-04-22T10:07:47;100922.06;;;20.99;52.43
53316;BME280;39204;53.896;11.432;2023-04-22T10:09:20;100931.13;;;21.39;54.67
53316;BME280;39204;53.896;11.432;2023-04-22T10:10:50;100915.75;;;21.43;52.96
53316;BME280;39204;53.896;11.432;2023-04-22T10:12:22;100919.84;;;21.32;52.88
53316;BME280;39204;53.896;11.432;2023-04-22T10:13:53;100915.25;;;21.10;52.69
53316;BME280;39204;53.896;11.432;2023-04-22T10:15:24;100926.22;;;21.27;54.05
53316;BME280;39204;53.896;11.432;2023-04-22T10:16:58;100924.59;;;21.49;53.92
53316;BME280;39204;53.896;11.432;2023-04-22T10:18:30;100920.88;;;21.14;52.99
53316;BME280;39204;53.896;11.432;2023-04-22T10:20:09;100919.19;;;21.04;52.78
53316;BME280;39204;53.896;11.432;2023-04-22T10:21:43;100924.97;;;21.02;54.08
53316;BME280;39204;53.896;11.432;2023-04-22T10:23:21;100924.88;;;21.16;52.95
53316;BME280;39204;53.896;11.432;2023-04-22T10:24:51;100922.59;;;21.10;51.65
53316;BME280;39204;53.896;11.432;2023-04-22T10:28:19;100920.00;;;21.05;52.46
53316;BME280;39204;53.896;11.432;2023-04-22T10:29:50;100921.94;;;21.04;53.35
53316;BME280;39204;53.896;11.432;2023-04-22T10:31:20;100921.66;;;21.14;53.48
53316;BME280;39204;53.896;11.432;2023-04-22T10:32:51;100923.13;;;21.20;52.15
53316;BME280;39204;53.896;11.432;2023-04-22T10:34:22;100922.06;;;21.30;54.17
53316;BME280;39204;53.896;11.432;2023-04-22T10:37:45;100911.66;;;21.32;52.24
53316;BME280;39204;53.896;11.432;2023-04-22T10:39:18;100907.44;;;21.26;54.04
53316;BME280;39204;53.896;11.432;2023-04-22T10:41:00;100915.06;;;21.38;54.31
53316;BME280;39204;53.896;11.432;2023-04-22T10:42:30;100899.94;;;21.71;53.71
53316;BME280;39204;53.896;11.432;2023-04-22T10:44:05;100904.69;;;22.06;54.73
53316;BME280;39204;53.896;11.432;2023-04-22T10:45:35;100902.84;;;21.75;52.91
53316;BME280;39204;53.896;11.432;2023-04-22T10:47:08;100901.94;;;21.97;53.02
53316;BME280;39204;53.896;11.432;2023-04-22T10:48:48;100897.91;;;21.94;54.30
53316;BME280;39204;53.896;11.432;2023-04-22T10:50:26;100892.72;;;21.75;52.49
53316;BME280;39204;53.896;11.432;2023-04-22T10:51:58;100899.06;;;21.45;53.75
53316;BME280;39204;53.896;11.432;2023-04-22T10:53:36;100895.88;;;21.52;53.81
53316;BME280;39204;53.896;11.432;2023-04-22T10:55:06;100894.78;;;21.61;53.86
53316;BME280;39204;53.896;11.432;2023-04-22T10:57:00;100888.22;;;21.62;52.71
53316;BME280;39204;53.896;11.432;2023-04-22T10:58:33;100888.56;;;21.78;52.49
53316;BME280;39204;53.896;11.432;2023-04-22T11:02:05;100891.25;;;22.18;52.70
53316;BME280;39204;53.896;11.432;2023-04-22T11:03:36;100885.00;;;22.26;51.69
53316;BME280;39204;53.896;11.432;2023-04-22T11:05:20;100875.19;;;22.25;52.69
53316;BME280;39204;53.896;11.432;2023-04-22T11:07:14;100883.69;;;22.23;51.25
53316;BME280;39204;53.896;11.432;2023-04-22T11:08:48;100871.25;;;21.91;49.83
53316;BME280;39204;53.896;11.432;2023-04-22T11:10:38;100873.66;;;21.84;50.25
53316;BME280;39204;53.896;11.432;2023-04-22T11:14:08;100873.03;;;22.05;49.09
53316;BME280;39204;53.896;11.432;2023-04-22T11:15:42;100869.31;;;21.83;49.07
53316;BME280;39204;53.896;11.432;2023-04-22T11:17:12;100857.94;;;22.07;49.97
53316;BME280;39204;53.896;11.432;2023-04-22T11:18:45;100868.75;;;22.30;49.92
53316;BME280;39204;53.896;11.432;2023-04-22T11:20:16;100860.53;;;22.04;50.69
53316;BME280;39204;53.896;11.432;2023-04-22T11:21:46;100856.19;;;22.03;50.60
53316;BME280;39204;53.896;11.432;2023-04-22T11:23:25;100863.72;;;21.97;50.01
53316;BME280;39204;53.896;11.432;2023-04-22T11:24:58;100854.06;;;21.73;49.43
53316;BME280;39204;53.896;11.432;2023-04-22T11:26:33;100857.28;;;21.93;50.18
53316;BME280;39204;53.896;11.432;2023-04-22T11:28:04;100854.56;;;21.93;49.06
53316;BME280;39204;53.896;11.432;2023-04-22T11:29:35;100853.81;;;22.18;49.87
53316;BME280;39204;53.896;11.432;2023-04-22T11:31:07;100841.91;;;22.23;49.92
53316;BME280;39204;53.896;11.432;2023-04-22T11:32:43;100850.94;;;22.32;49.81
53316;BME280;39204;53.896;11.432;2023-04-22T11:34:13;100845.56;;;22.01;48.37
53316;BME280;39204;53.896;11.432;2023-04-22T11:35:44;100841.22;;;21.91;48.59
53316;BME280;39204;53.896;11.432;2023-04-22T11:37:17;100846.06;;;22.12;49.13
53316;BME280;39204;53.896;11.432;2023-04-22T11:38:55;100848.78;;;22.12;49.96
53316;BME280;39204;53.896;11.432;2023-04-22T11:40:30;100841.28;;;22.26;48.93
53316;BME280;39204;53.896;11.432;2023-04-22T11:42:01;100834.34;;;22.11;48.57
53316;BME280;39204;53.896;11.432;2023-04-22T11:43:31;100843.84;;;22.31;49.46
53316;BME280;39204;53.896;11.432;2023-04-22T11:45:02;100833.84;;;22.53;49.75
53316;BME280;39204;53.896;11.432;2023-04-22T11:46:32;100829.00;;;22.67;50.93
53316;BME280;39204;53.896;11.432;2023-04-22T11:48:09;100830.75;;;22.71;49.68
53316;BME280;39204;53.896;11.432;2023-04-22T11:49:40;100835.69;;;22.87;50.57
53316;BME280;39204;53.896;11.432;2023-04-22T11:51:10;100830.59;;;22.68;48.19
53316;BME280;39204;53.896;11.432;2023-04-22T11:52:58;100837.63;;;22.86;48.08
53316;BME280;39204;53.896;11.432;2023-04-22T11:54:31;100836.84;;;22.86;49.22
53316;BME280;39204;53.896;11.432;2023-04-22T11:56:01;100837.19;;;22.84;48.69
53316;BME280;39204;53.896;11.432;2023-04-22T11:57:35;100831.47;;;22.51;47.98
53316;BME280;39204;53.896;11.432;2023-04-22T11:59:08;100826.00;;;22.51;48.54
53316;BME280;39204;53.896;11.432;2023-04-22T12:02:16;100825.94;;;22.77;49.58
53316;BME280;39204;53.896;11.432;2023-04-22T12:03:46;100820.56;;;22.98;49.90
53316;BME280;39204;53.896;11.432;2023-04-22T12:05:16;100814.22;;;22.68;49.36
53316;BME280;39204;53.896;11.432;2023-04-22T12:06:48;100821.38;;;22.90;49.85
53316;BME280;39204;53.896;11.432;2023-04-22T12:08:21;100818.03;;;22.76;51.01
53316;BME280;39204;53.896;11.432;2023-04-22T12:09:55;100822.13;;;22.52;49.70
53316;BME280;39204;53.896;11.432;2023-04-22T12:11:26;100819.00;;;22.80;49.19
53316;BME280;39204;53.896;11.432;2023-04-22T12:12:59;100821.56;;;22.76;49.65
53316;BME280;39204;53.896;11.432;2023-04-22T12:14:33;100811.81;;;23.13;49.82
53316;BME280;39204;53.896;11.432;2023-04-22T12:16:08;100807.44;;;23.21;48.82
53316;BME280;39204;53.896;11.432;2023-04-22T12:17:39;100804.19;;;23.28;49.72
53316;BME280;39204;53.896;11.432;2023-04-22T12:19:09;100815.25;;;23.02;49.93
53316;BME280;39204;53.896;11.432;2023-04-22T12:20:40;100803.16;;;23.11;50.24
53316;BME280;39204;53.896;11.432;2023-04-22T12:22:11;100802.38;;;23.02;50.37
53316;BME280;39204;53.896;11.432;2023-04-22T12:23:45;100804.47;;;23.05;49.17
53316;BME280;39204;53.896;11.432;2023-04-22T12:25:19;100802.22;;;22.99;50.88
53316;BME280;39204;53.896;11.432;2023-04-22T12:26:49;100800.47;;;23.03;50.81
53316;BME280;39204;53.896;11.432;2023-04-22T12:28:19;100804.56;;;23.17;50.11
53316;BME280;39204;53.896;11.432;2023-04-22T12:29:54;100801.03;;;23.17;51.20
53316;BME280;39204;53.896;11.432;2023-04-22T12:31:26;100802.44;;;22.85;49.73
53316;BME280;39204;53.896;11.432;2023-04-22T12:32:56;100795.47;;;23.05;50.07
53316;BME280;39204;53.896;11.432;2023-04-22T12:34:27;100800.47;;;22.94;49.60
53316;BME280;39204;53.896;11.432;2023-04-22T12:35:57;100797.19;;;23.09;50.34
53316;BME280;39204;53.896;11.432;2023-04-22T12:37:28;100801.78;;;22.97;51.46
53316;BME280;39204;53.896;11.432;2023-04-22T12:38:58;100798.63;;;23.45;50.57
53316;BME280;39204;53.896;11.432;2023-04-22T12:40:28;100787.53;;;23.12;49.67
53316;BME280;39204;53.896;11.432;2023-04-22T12:41:59;100786.13;;;23.06;50.58
53316;BME280;39204;53.896;11.432;2023-04-22T12:43:29;100779.56;;;22.98;50.38
53316;BME280;39204;53.896;11.432;2023-04-22T12:45:01;100777.75;;;23.02;50.03
53316;BME280;39204;53.896;11.432;2023-04-22T12:46:32;100779.41;;;22.94;50.25
53316;BME280;39204;53.896;11.432;2023-04-22T12:48:02;100788.41;;;22.95;50.15
53316;BME280;39204;53.896;11.432;2023-04-22T12:49:33;100773.66;;;22.79;50.96
53316;BME280;39204;53.896;11.432;2023-04-22T12:51:04;100792.03;;;22.69;49.70
53316;BME280;39204;53.896;11.432;2023-04-22T12:52:34;100790.94;;;22.53;49.72
53316;BME280;39204;53.896;11.432;2023-04-22T12:54:04;100789.34;;;22.52;50.70
53316;BME280;39204;53.896;11.432;2023-04-22T12:55:35;100788.09;;;22.88;51.66
53316;BME280;39204;53.896;11.432;2023-04-22T12:57:05;100784.44;;;22.75;50.60
53316;BME280;39204;53.896;11.432;2023-04-22T12:58:36;100788.66;;;22.64;51.42
53316;BME280;39204;53.896;11.432;2023-04-22T13:00:06;100773.34;;;22.71;51.18
53316;BME280;39204;53.896;11.432;2023-04-22T13:01:43;100778.09;;;22.45;50.55
53316;BME280;39204;53.896;11.432;2023-04-22T13:03:13;100776.13;;;22.54;50.34
53316;BME280;39204;53.896;11.432;2023-04-22T13:04:43;100776.94;;;22.55;50.75
53316;BME280;39204;53.896;11.432;2023-04-22T13:06:15;100760.31;;;22.77;52.09
53316;BME280;39204;53.896;11.432;2023-04-22T13:07:45;100763.72;;;22.74;50.49
53316;BME280;39204;53.896;11.432;2023-04-22T13:09:16;100755.34;;;22.62;51.21
53316;BME280;39204;53.896;11.432;2023-04-22T13:10:47;100759.88;;;22.66;51.81
53316;BME280;39204;53.896;11.432;2023-04-22T13:12:17;100761.66;;;22.62;51.18
53316;BME280;39204;53.896;11.432;2023-04-22T13:13:47;100761.50;;;22.50;50.46
53316;BME280;39204;53.896;11.432;2023-04-22T13:15:18;100757.13;;;22.66;51.02
53316;BME280;39204;53.896;11.432;2023-04-22T13:16:48;100749.78;;;22.50;50.09
53316;BME280;39204;53.896;11.432;2023-04-22T13:18:18;100750.13;;;22.39;50.67